Kenneth Dumfries

Chefscout - PSV
5 Dez 2027
Sonntag
Verarbeitung

Persönlichkeit

Anpassungsfähigkeit (14) Ehrgeiz (13) Kontroverse (5) Loyalität (19) Druck (18) Professionalität (11) Fairness (5) Temperament (6)

Profil

Trainerstil Demokratisch
Lizenz Kontinentale A
Entschlossenheit 11
Menschenführung 13
Motivation 16
Disziplin 12
Arbeitszufriedenheit
100%
Ermüdung
0%
Rolle Chefscout
Gehalt 72.3K p/W
Vertrag 14.03.2029

Leistung

Verhalten Gut
Trainingseffektivität
60%
Spielerentwicklung
35%
Verletzungsprävention
50%
Taktische Umsetzung
50%

Letzte Ereignisse

Nahm an einer Scouting-Besprechung teil jetzt
Empfahl ein Transferziel jetzt
Empfahl ein Transferziel jetzt
Empfahl ein Transferziel jetzt
Empfahl ein Transferziel 7T her
Empfahl ein Transferziel 7T her
Nahm an einer Scouting-Besprechung teil 7T her
Empfahl ein Transferziel 7T her

Aktuell beobachtet

169
Spieler Verein Status Fähigkeit Vertrauen Beobachtet Zuletzt beobachtet Letzte Stimme
Jules Koundé Barcelona Aktiv 169 / 161 40% 1 16.08.2027 -
Beñat Prados Málaga Aktiv 142 / 144 40% 1 16.08.2027 -
Manu Koné AS Roma Aktiv 169 / 164 40% 2 15.08.2027 -
Jesús Areso Athletic Bilbao Aktiv 138 / 146 40% 6 14.08.2027 -
Ibrahima Konaté Real Madrid Aktiv 168 / 163 40% 4 14.08.2027 -
Andrea Cambiaso Juventus Aktiv 162 / 151 40% 1 13.08.2027 -
Eduardo Camavinga Real Madrid Aktiv 165 / 167 40% 4 11.08.2027 -
Trent Alexander-Arnold Real Madrid Aktiv 165 / 167 40% 1 11.08.2027 -
Azor Matusiwa Ipswich Town Verloren 149 / 143 40% 10 07.08.2027 -
Tino Livramento Newcastle United Aktiv 156 / 159 40% 4 07.08.2027 -
Youri Tielemans Manchester United Aktiv 166 / 164 40% 7 06.08.2027 -
Roméo Lavia Chelsea Aktiv 157 / 154 40% 9 06.08.2027 -
Sergi Cardona Villarreal Aktiv 156 / 149 40% 6 03.08.2027 -
Brooke Norton-Cuffy Hull City Aktiv 141 / 143 40% 6 03.08.2027 -
Tijjani Reijnders Al-Qadisiyah Verloren 152 / 163 40% 8 30.07.2027 -
Fran García Betis Aktiv 157 / 154 40% 6 30.07.2027 -
Anton Stach Leeds United Aktiv 150 / 155 40% 3 29.07.2027 -
Lucien Agoumé Sevilla Aktiv 142 / 141 40% 7 18.07.2027 -
Matthijs de Ligt Manchester United Aktiv 155 / 162 40% 17 17.07.2027 -
José Ángel Carmona Sevilla Aktiv 152 / 153 40% 6 15.07.2027 -
Saša Lukić Ipswich Town Aktiv 143 / 140 40% 4 13.07.2027 -
Tim Iroegbunam Hull City Aktiv 131 / 138 40% 4 13.07.2027 -
Quinten Timber Crystal Palace Aktiv 144 / 154 40% 10 12.07.2027 -
Alex Scott Bournemouth Aktiv 158 / 151 40% 6 07.07.2027 -
Pape Guèye Villarreal Aktiv 150 / 150 40% 1 06.07.2027 -
Ian Maatsen Aston Villa Aktiv 153 / 153 40% 7 05.07.2027 -
Jacob Greaves Ipswich Town Aktiv 133 / 141 40% 5 05.07.2027 -
Kike Salas Sevilla Aktiv 153 / 146 40% 3 04.07.2027 -
Florentino Luís Ipswich Town Aktiv 148 / 142 40% 2 02.07.2027 -
Sepp van den Berg Brentford Aktiv 153 / 149 40% 9 01.07.2027 -
Exequiel Palacios Ipswich Town Aktiv 160 / 158 40% 2 01.07.2027 -
Wesley Fofana Chelsea Aktiv 160 / 162 40% 8 29.06.2027 -
Nordi Mukiele Sunderland Aktiv 139 / 146 40% 1 28.06.2027 -
Xaver Schlager Nottingham Forest Aktiv 144 / 153 40% 3 25.06.2027 -
Youri Baas Bournemouth Aktiv 149 / 150 40% 11 23.06.2027 -
Jorrel Hato Chelsea Aktiv 157 / 157 40% 4 19.06.2027 -
Habib Diarra Sunderland Verloren 143 / 144 40% 3 19.06.2027 -
Boubacar Kamara Aston Villa Aktiv 158 / 162 40% 1 18.06.2027 -
Frenkie de Jong Barcelona Aktiv 166 / 165 40% 1 15.06.2027 -
Sven Botman Newcastle United Abgelehnt 154 / 156 67% 6 07.06.2027 -
Gavi Barcelona Abgelehnt 155 / 163 75% 10 06.06.2027 -
Curtis Jones Inter Aktiv 160 / 154 40% 4 02.06.2027 -
Konstantin Tyukavin KV Mechelen Aktiv 132 / 133 66% 1 01.06.2027 Befürworten
Facundo Torres KAA Gent Verhandlung 134 / 134 67% 1 01.06.2027 -
Raúl Rangel Manchester United Aktiv 132 / 132 66% 1 01.06.2027 Befürworten
Mao Hosoya Anderlecht Verhandlung 134 / 135 67% 1 01.06.2027 -
Nicolas Jackson Aston Villa Aktiv 141 / 144 40% 1 31.05.2027 -
Matthis Abline Monaco Aktiv 142 / 140 40% 1 30.05.2027 -
Jorge Pascual Granada Aktiv 135 / 136 40% 1 28.05.2027 -
Johnny Cardoso Atlético Madrid Aktiv 149 / 153 40% 9 25.05.2027 -
Carlos Romero Villarreal Aktiv 146 / 149 40% 2 24.05.2027 -
Pablo Felipe West Ham United Aktiv 135 / 140 40% 2 24.05.2027 -
Miguel Rodríguez Caracas Aktiv 141 / 133 40% 1 24.05.2027 -
James Garner Everton Aktiv 158 / 153 40% 3 23.05.2027 -
Roberto Fernández Braga Aktiv 152 / 139 40% 4 13.05.2027 -
Noah Sadiki Sunderland Aktiv 142 / 146 40% 1 12.05.2027 -
Mika Biereth Monaco Aktiv 131 / 132 40% 1 11.05.2027 -
Gonzalo Fulham Aktiv 140 / 144 40% 1 11.05.2027 -
Jan Paul van Hecke Tottenham Aktiv 153 / 156 40% 4 08.05.2027 -
Khéphren Thuram Juventus Aktiv 150 / 155 40% 3 08.05.2027 -
Kenneth Taylor Lazio Aktiv 147 / 153 40% 4 07.05.2027 -
Omar El Hilali Espanyol Aktiv 153 / 151 40% 4 05.05.2027 -
Oumar Camara Vitoria Guimaraes Aktiv 125 / 128 40% 1 04.05.2027 -
Adam Wharton Crystal Palace Aktiv 153 / 153 40% 6 01.05.2027 -
Luis Alberto Ríos Celta Aktiv 136 / 143 40% 2 30.04.2027 -
Peque Sevilla Aktiv 144 / 143 40% 2 30.04.2027 -
Liam Delap Nottingham Forest Aktiv 144 / 147 40% 2 26.04.2027 -
Joseph Lucas KAA Gent Aktiv 129 / 121 40% 1 26.04.2027 -
Nacer Mertens KV Oostende Aktiv 133 / 131 40% 2 23.04.2027 -
Malo Gusto Olympique de Marseille Aktiv 147 / 148 40% 3 21.04.2027 -
Maxence Lacroix Chelsea Aktiv 144 / 147 40% 2 20.04.2027 -
Juanlu Bournemouth Aktiv 142 / 148 40% 1 19.04.2027 -
Guille Rosas Gijón Aktiv 148 / 136 40% 1 16.04.2027 -
Pedro Porro Tottenham Aktiv 152 / 144 40% 2 11.04.2027 -
Ethan Ampadu Leeds United Aktiv 138 / 144 40% 5 09.04.2027 -
Ilyas Ansah Hull City Aktiv 139 / 133 40% 1 08.04.2027 -
Kauã Elias Club Brugge Aktiv 133 / 140 40% 3 07.04.2027 -
Williot Swedberg Celta Aktiv 139 / 143 40% 2 06.04.2027 -
Ramón Terrats Getafe Aktiv 150 / 137 40% 1 31.03.2027 -
Willian Pacho Paris Saint-Germain Aktiv 160 / 166 40% 1 29.03.2027 -
Amadou Onana Aston Villa Aktiv 146 / 158 40% 1 25.03.2027 -
Axel Doku KV Oostende Aktiv 121 / 131 40% 2 24.03.2027 -
Georginio Rutter Olympique Lyonnais Aktiv 144 / 147 40% 2 24.03.2027 -
Deivid Washington RC Strasbourg Aktiv 115 / 126 40% 1 24.03.2027 -
Ansu Fati Monaco Aktiv 144 / 136 40% 1 23.03.2027 -
Hamza Igamane LOSC Lille Aktiv 149 / 142 40% 2 20.03.2027 -
Emanuel Emegha Chelsea Aktiv 137 / 137 40% 2 15.03.2027 -
Assane Diao Fiorentina Aktiv 139 / 152 40% 1 14.03.2027 -
Aitor Paredes Athletic Bilbao Aktiv 145 / 145 40% 2 10.03.2027 -
Joaquin Seys Club Brugge Aktiv 119 / 127 40% 2 08.03.2027 -
Karl Etta Eyong Levante Aktiv 133 / 142 40% 1 06.03.2027 -
Marc Guéhi Manchester City Aktiv 177 / 170 40% 1 04.03.2027 -
Pablo Barrios Atlético Madrid Aktiv 160 / 158 40% 1 27.02.2027 -
Tyrick Mitchell Anderlecht Aktiv 144 / 152 40% 4 17.02.2027 -
Gabriel Gudmundsson Leeds United Aktiv 144 / 144 40% 2 03.02.2027 -
Luc François Tours Aktiv 158 / 162 40% 4 02.02.2027 -
Erik Lira Cruz Azul Aktiv 128 / 126 40% 1 01.02.2027 -
Aurélien Tchouaméni Real Madrid Aktiv 158 / 170 40% 1 30.01.2027 -
Jayden Oosterwolde Fenerbahce Aktiv 126 / 140 40% 2 25.01.2027 -
Dara O'Shea Ipswich Town Aktiv 141 / 132 40% 1 23.01.2027 -
Stanislav Agkatsev CSKA Moscow Verhandlung 132 / 133 89% 1 01.01.2027 Befürworten
Roberto Alvarado Leeds United Aktiv 139 / 139 66% 1 01.01.2027 Befürworten
Alexis Mac Allister Liverpool Aktiv 170 / 155 40% 2 29.12.2026 -
Chemsdine Talbi Sunderland Aktiv 132 / 140 40% 4 28.12.2026 -
Jakob Napoleon Romsaas Charleroi Aktiv 112 / 126 40% 1 28.12.2026 -
Félix Lemaréchal Club Brugge Aktiv 138 / 132 40% 2 23.12.2026 -
Emile Smith Rowe Fulham Aktiv 148 / 148 40% 1 23.12.2026 -
Bruno Guimarães Arsenal Aktiv 177 / 166 40% 1 23.12.2026 -
Juan Pereyra Veracruz Verloren 165 / 161 40% 4 20.12.2026 -
Brennan Johnson Everton Aktiv 152 / 146 40% 3 20.12.2026 -
Noussair Mazraoui Manchester United Aktiv 161 / 155 40% 4 18.12.2026 -
Michy Courtois KV Oostende Aktiv 148 / 137 40% 5 17.12.2026 -
Conor Gallagher Tottenham Aktiv 155 / 154 40% 2 17.12.2026 -
Charles De Ketelaere Atalanta Aktiv 160 / 154 40% 2 15.12.2026 -
Pau Víctor Braga Aktiv 130 / 133 40% 1 13.12.2026 -
Yann Leclercq Chamois Niortais Aktiv 165 / 150 40% 5 10.12.2026 -
Yoann Cathline Utrecht Aktiv 126 / 136 40% 3 07.12.2026 Beobachten
Mason Mount Manchester United Aktiv 148 / 149 40% 2 07.12.2026 -
Kevin Schade Brentford Aktiv 140 / 151 40% 2 06.12.2026 -
Oussama Idrissi Pachuca Aktiv 142 / 134 40% 2 03.12.2026 -
Amad Manchester United Aktiv 160 / 153 40% 1 03.12.2026 -
Jordan Teze Monaco Aktiv 130 / 132 40% 2 30.11.2026 -
Callum Hudson-Odoi Nottingham Forest Aktiv 156 / 148 40% 2 30.11.2026 -
Teun Koopmeiners Juventus Aktiv 149 / 144 40% 1 27.11.2026 -
Yankuba Minteh Brighton Aktiv 153 / 152 40% 2 26.11.2026 -
Brynjólfur Willumsson Groningen Aktiv 120 / 119 40% 1 26.11.2026 -
Jesús Ricardo Angulo Toluca Aktiv 127 / 127 40% 2 24.11.2026 -
Ramiz Zerrouki Twente Aktiv 143 / 135 40% 1 24.11.2026 -
Morgan Gibbs-White Nottingham Forest Aktiv 158 / 153 40% 2 21.11.2026 -
Danylo Sikan Anderlecht Aktiv 122 / 133 40% 1 18.11.2026 -
Isa Sakamoto Westerlo Aktiv 114 / 111 40% 1 18.11.2026 -
Evander NK Osijek Aktiv 140 / 138 40% 1 18.11.2026 -
Haissem Hassan Bloemfontein Celtic Aktiv 117 / 125 40% 1 17.11.2026 -
Donyell Malen AS Roma Aktiv 142 / 153 40% 4 14.11.2026 -
Joshua Zirkzee Manchester United Aktiv 141 / 146 40% 3 14.11.2026 -
Jan Virgili Club Brugge Aktiv 124 / 132 40% 1 11.11.2026 -
Kai Havertz Arsenal Aktiv 151 / 163 40% 1 10.11.2026 -
Timothy Lukaku Utrecht Aktiv 149 / 144 40% 3 07.11.2026 -
Crysencio Summerville Al-Hilal Aktiv 123 / 146 40% 3 02.11.2026 -
Amine Adli Bournemouth Aktiv 136 / 148 40% 1 30.10.2026 -
Noah Adedeji-Sternberg Racing Genk Aktiv 115 / 127 40% 1 26.10.2026 -
Tristan Degreef Anderlecht Aktiv 121 / 126 40% 2 19.10.2026 -
Jadon Sancho Manchester United Aktiv 145 / 144 40% 2 17.10.2026 -
Aaron Hickey Brentford Aktiv 136 / 137 40% 1 14.10.2026 -
Mandla Phiri SuperSport United Aktiv 120 / 143 40% 1 11.10.2026 -
Óscar Mingueza Crystal Palace Aktiv 138 / 146 40% 1 09.10.2026 -
Allan Saint-Maximin Charlotte Football Club Aktiv 136 / 144 40% 1 09.10.2026 -
Joško Gvardiol Manchester City Aktiv 171 / 164 40% 2 06.10.2026 -
Antoni Milambo Brentford Aktiv 145 / 142 40% 2 03.10.2026 -
Ritsu Doan Gamba Osaka Aktiv 152 / 160 40% 1 28.09.2026 -
Ibrahim Sangaré Nottingham Forest Aktiv 150 / 145 40% 1 27.09.2026 -
Cody Gakpo Liverpool Aktiv 146 / 151 40% 1 24.09.2026 -
Mario Stroeykens Anderlecht Aktiv 132 / 123 40% 1 20.09.2026 -
Iliman N'Diaye Derby County Aktiv 159 / 163 40% 1 20.09.2026 -
Justin Kluivert Bournemouth Aktiv 149 / 143 40% 1 19.09.2026 -
Agustín Palavecino Cruz Azul Aktiv 118 / 145 40% 1 19.09.2026 -
Kenny Tete Fulham Aktiv 148 / 147 40% 3 18.09.2026 -
Yaimar Medina Racing Genk Aktiv 126 / 123 40% 1 16.09.2026 -
James Maddison Tottenham Aktiv 148 / 157 40% 1 04.09.2026 -
Mamadou Diakhon Club Brugge Aktiv 125 / 125 40% 1 03.09.2026 -
Xavi Simons Tottenham Aktiv 145 / 163 40% 1 03.09.2026 -
Jarrad Branthwaite Everton Aktiv 141 / 158 40% 1 01.09.2026 -
Kyriani Sabbe Club Brugge Aktiv 109 / 124 40% 1 31.08.2026 -
Chris Lokesa Waasland-Beveren Aktiv 118 / 132 40% 1 31.08.2026 -
Mbekezeli Mbokazi Chicago Fire Aktiv 123 / 118 40% 1 27.08.2026 -
Ignacio Perruzzi San Lorenzo Aktiv 126 / 125 40% 1 26.08.2026 -
Samú Al-Nassr Aktiv 141 / 134 40% 1 24.08.2026 -
Iván Fresneda Sporting CP Aktiv 143 / 141 40% 1 03.08.2026 -
Ferran Torres Paris Saint-Germain Aktiv 155 / 169 40% 1 01.08.2026 -